Time;durP1;ratioP1;P1;durP2;ratioP2;P2;SDS_P1;SDS_P2;PMS_P1;PMS_P2;Temp;Humidity;BMP_temperature;BMP_pressure;BME280_temperature;BME280_humidity;BME280_pressure;Samples;Min_cycle;Max_cycle;Signal;HPM_P1;HPM_P2
2022/06/27 00:00:17;;;;;;;11.63;10.43;;;;;;;22.71;72.25;100038.59;5042145;28;20041;-63
2022/06/27 00:02:44;;;;;;;15.30;10.95;;;;;;;22.75;72.57;100042.72;5035249;28;20071;-62
2022/06/27 00:05:12;;;;;;;20.17;11.32;;;;;;;22.74;72.29;100044.50;5053878;28;20096;-62
2022/06/27 00:07:38;;;;;;;18.48;12.23;;;;;;;22.72;72.68;100054.34;5051380;28;20040;-63
2022/06/27 00:10:05;;;;;;;15.40;10.77;;;;;;;22.67;72.66;100050.31;5050874;28;20033;-63
2022/06/27 00:12:31;;;;;;;14.48;11.23;;;;;;;22.67;72.47;100045.03;5050960;28;20029;-63
2022/06/27 00:14:58;;;;;;;13.60;10.20;;;;;;;22.64;72.90;100047.88;5051307;28;20486;-63
2022/06/27 00:17:23;;;;;;;20.77;10.15;;;;;;;22.54;72.75;100051.09;5050412;28;20112;-63
2022/06/27 00:19:49;;;;;;;14.63;11.55;;;;;;;22.55;72.79;100046.69;5052585;28;20037;-63
2022/06/27 00:22:15;;;;;;;13.23;10.25;;;;;;;22.54;72.85;100042.34;5051759;28;20029;-63
2022/06/27 00:24:40;;;;;;;13.02;10.30;;;;;;;22.49;73.06;100058.50;5057840;28;20029;-63
2022/06/27 00:27:06;;;;;;;12.55;10.55;;;;;;;22.49;72.68;100058.50;5045599;28;20135;-64
2022/06/27 00:29:32;;;;;;;15.15;10.40;;;;;;;22.46;72.78;100061.34;5046995;28;20025;-64
2022/06/27 00:31:57;;;;;;;11.75;9.88;;;;;;;22.40;72.09;100059.09;5054403;28;20501;-63
2022/06/27 00:34:23;;;;;;;11.10;9.25;;;;;;;22.44;72.01;100054.47;5070884;28;20069;-63
2022/06/27 00:36:49;;;;;;;18.48;10.23;;;;;;;22.45;71.87;100057.00;5074809;28;20489;-63
2022/06/27 00:39:14;;;;;;;12.68;9.10;;;;;;;22.43;71.90;100053.59;5063985;28;20028;-63
2022/06/27 00:41:40;;;;;;;13.18;9.70;;;;;;;22.44;71.68;100059.75;5053652;28;20021;-63
2022/06/27 00:44:06;;;;;;;18.73;9.70;;;;;;;22.37;72.39;100056.66;5054175;28;20025;-63
2022/06/27 00:46:31;;;;;;;13.98;9.85;;;;;;;22.43;72.02;100061.50;5057721;28;20037;-63
2022/06/27 00:48:57;;;;;;;17.15;10.52;;;;;;;22.39;72.12;100049.50;5054891;28;20120;-63
2022/06/27 00:51:25;;;;;;;16.17;10.65;;;;;;;22.26;72.63;100065.25;5045595;28;20479;-63
2022/06/27 00:53:54;;;;;;;17.23;10.13;;;;;;;22.21;72.91;100064.69;5054379;28;20493;-64
2022/06/27 00:56:21;;;;;;;13.30;8.98;;;;;;;22.10;73.10;100062.72;5054588;28;20029;-64
2022/06/27 00:58:47;;;;;;;13.32;9.20;;;;;;;22.14;73.48;100066.84;5054130;28;20470;-64
2022/06/27 01:01:12;;;;;;;17.08;10.15;;;;;;;22.15;73.23;100055.34;5053790;28;20021;-65
2022/06/27 01:03:38;;;;;;;16.80;10.25;;;;;;;22.18;73.31;100059.59;5033394;28;20033;-65
2022/06/27 01:06:04;;;;;;;14.50;9.77;;;;;;;22.20;73.39;100060.34;5051312;28;20044;-64
2022/06/27 01:08:31;;;;;;;20.58;10.90;;;;;;;22.22;73.19;100061.94;5054114;28;20510;-64
2022/06/27 01:10:57;;;;;;;19.00;10.75;;;;;;;22.22;73.15;100055.81;5034272;28;20028;-64
2022/06/27 01:13:23;;;;;;;12.80;9.85;;;;;;;22.26;73.32;100056.47;5049081;28;20025;-64
2022/06/27 01:15:49;;;;;;;15.10;9.95;;;;;;;22.18;73.40;100049.88;5053144;28;20029;-64
2022/06/27 01:18:16;;;;;;;17.30;10.70;;;;;;;22.20;73.66;100053.28;5040510;28;20035;-64
2022/06/27 01:20:43;;;;;;;12.98;10.00;;;;;;;22.19;73.58;100045.44;5051719;28;20590;-65
2022/06/27 01:23:08;;;;;;;14.43;10.35;;;;;;;22.22;73.34;100051.38;5067200;28;20044;-64
2022/06/27 01:25:37;;;;;;;12.40;9.77;;;;;;;22.24;73.45;100052.13;5053935;28;20025;-64
2022/06/27 01:28:05;;;;;;;13.60;10.00;;;;;;;22.16;73.41;100041.22;5053650;28;20029;-63
2022/06/27 01:30:31;;;;;;;15.75;10.23;;;;;;;22.29;73.31;100057.13;5053131;28;20049;-63
2022/06/27 01:32:56;;;;;;;16.60;10.07;;;;;;;22.29;73.17;100054.47;5035925;28;20455;-63
2022/06/27 01:35:22;;;;;;;18.35;10.48;;;;;;;22.30;73.06;100052.69;5053576;28;20037;-62
2022/06/27 01:37:49;;;;;;;14.57;10.35;;;;;;;22.27;73.59;100052.88;5053066;28;20032;-63
2022/06/27 01:40:15;;;;;;;14.50;9.38;;;;;;;22.27;73.68;100055.53;5034548;28;20021;-63
2022/06/27 01:42:42;;;;;;;11.60;10.35;;;;;;;22.30;73.46;100053.50;5042338;28;20036;-63
2022/06/27 01:45:09;;;;;;;14.20;10.32;;;;;;;22.36;73.22;100058.44;5053046;28;20427;-63
2022/06/27 01:47:34;;;;;;;13.10;9.50;;;;;;;22.35;73.36;100050.63;5051876;28;20102;-62
2022/06/27 01:50:00;;;;;;;14.45;10.30;;;;;;;22.33;73.67;100057.78;5052998;28;20025;-62
2022/06/27 01:52:27;;;;;;;17.17;10.10;;;;;;;22.26;73.57;100049.41;5049519;28;20039;-62
2022/06/27 01:54:54;;;;;;;13.60;10.30;;;;;;;22.33;73.71;100053.38;5043413;28;20021;-63
2022/06/27 01:57:22;;;;;;;12.23;10.30;;;;;;;22.29;74.43;100057.13;5052983;28;20036;-63
2022/06/27 01:59:49;;;;;;;19.20;10.90;;;;;;;22.31;74.03;100054.38;5053027;28;20466;-62
2022/06/27 02:02:15;;;;;;;16.00;11.00;;;;;;;22.34;74.18;100062.97;5053046;28;20028;-62
2022/06/27 02:04:41;;;;;;;19.30;11.00;;;;;;;22.38;74.08;100066.25;5036976;28;20114;-62
2022/06/27 02:07:07;;;;;;;13.98;11.25;;;;;;;22.39;74.06;100068.81;5053001;28;20033;-63
2022/06/27 02:09:33;;;;;;;21.17;11.38;;;;;;;22.40;74.08;100067.00;5052828;28;20025;-63
2022/06/27 02:12:18;;;;;;;18.70;10.70;;;;;;;22.45;73.81;100057.00;5052686;28;20071;-63
2022/06/27 02:14:53;;;;;;;12.65;9.90;;;;;;;22.46;74.06;100056.06;5052915;28;20021;-63
2022/06/27 02:17:20;;;;;;;18.42;11.45;;;;;;;22.55;74.18;100063.38;5052554;28;20116;-63
2022/06/27 02:19:45;;;;;;;18.30;11.00;;;;;;;22.56;74.21;100051.88;5052996;28;20040;-63
2022/06/27 02:22:13;;;;;;;15.48;10.30;;;;;;;22.57;74.10;100044.78;5052309;28;20084;-63
2022/06/27 02:24:39;;;;;;;15.30;11.63;;;;;;;22.70;74.21;100063.31;5034748;28;20021;-63
2022/06/27 02:27:06;;;;;;;18.17;11.27;;;;;;;22.79;73.91;100059.19;5056765;28;20020;-63
2022/06/27 02:29:33;;;;;;;18.15;10.75;;;;;;;22.84;73.41;100052.66;5072764;28;20103;-64
2022/06/27 02:32:00;;;;;;;16.10;10.52;;;;;;;22.95;72.35;100040.56;5052509;28;20021;-64
2022/06/27 02:34:27;;;;;;;17.35;10.82;;;;;;;23.02;72.21;100036.53;5063640;28;20033;-64
2022/06/27 02:36:54;;;;;;;16.10;10.75;;;;;;;23.07;72.61;100043.22;5063216;28;20553;-64
2022/06/27 02:39:23;;;;;;;15.40;10.00;;;;;;;23.17;72.32;100037.31;5039513;28;20040;-64
2022/06/27 02:41:56;;;;;;;12.30;9.98;;;;;;;23.28;71.50;100045.34;5054026;28;20116;-64
2022/06/27 02:44:22;;;;;;;16.38;11.57;;;;;;;23.30;72.64;100045.25;5056537;28;20160;-64
2022/06/27 02:46:50;;;;;;;13.82;10.45;;;;;;;23.37;72.00;100042.09;5052757;28;20016;-65
2022/06/27 02:49:16;;;;;;;13.07;10.18;;;;;;;23.48;71.47;100045.78;5053165;28;20053;-64
2022/06/27 02:51:49;;;;;;;16.40;10.88;;;;;;;23.27;71.70;100001.38;5038717;28;20046;-64
2022/06/27 02:54:27;;;;;;;13.68;10.35;;;;;;;23.35;71.53;100008.78;5052396;28;20036;-65
2022/06/27 02:56:59;;;;;;;14.77;10.40;;;;;;;23.38;71.63;100013.84;5054291;28;20040;-63
2022/06/27 02:59:32;;;;;;;16.42;10.65;;;;;;;23.74;70.95;100062.44;5032258;28;20029;-63
2022/06/27 03:01:58;;;;;;;14.82;10.55;;;;;;;23.73;71.36;100039.63;5033910;28;20478;-63
2022/06/27 03:04:24;;;;;;;17.05;11.95;;;;;;;23.83;71.07;100048.59;5057982;28;20074;-63
2022/06/27 03:06:49;;;;;;;14.90;11.48;;;;;;;23.90;70.77;100052.50;5062148;28;20032;-63
2022/06/27 03:09:17;;;;;;;12.48;10.55;;;;;;;23.93;70.38;100039.06;5066389;28;20104;-63
2022/06/27 03:11:45;;;;;;;13.93;10.82;;;;;;;24.04;70.49;100048.03;5051879;28;20021;-63
2022/06/27 03:14:10;;;;;;;15.82;10.57;;;;;;;24.12;70.16;100048.31;5051841;28;20429;-63
2022/06/27 03:16:36;;;;;;;16.55;10.77;;;;;;;24.19;69.71;100043.44;5051206;28;20021;-64
2022/06/27 03:19:03;;;;;;;15.45;10.95;;;;;;;24.33;69.09;100047.69;5051408;28;20696;-63
2022/06/27 03:21:29;;;;;;;15.82;10.98;;;;;;;24.40;68.98;100041.84;5033497;28;20466;-63
2022/06/27 03:23:54;;;;;;;18.65;10.63;;;;;;;24.57;68.54;100040.59;5054060;28;20040;-63
2022/06/27 03:26:20;;;;;;;13.48;9.93;;;;;;;24.69;68.11;100045.97;5061661;28;20086;-63
2022/06/27 03:28:46;;;;;;;13.13;9.95;;;;;;;24.71;68.02;100036.09;5050939;28;20056;-63
2022/06/27 03:31:13;;;;;;;13.55;10.32;;;;;;;24.78;67.27;100042.63;5033971;28;20028;-63
2022/06/27 03:33:39;;;;;;;16.30;10.90;;;;;;;24.85;67.69;100030.59;5051249;28;20103;-63
2022/06/27 03:36:05;;;;;;;12.90;10.00;;;;;;;24.87;66.75;100027.84;5055035;28;20112;-65
2022/06/27 03:38:31;;;;;;;10.32;9.27;;;;;;;25.02;67.03;100039.09;5071987;28;20172;-63
2022/06/27 03:40:57;;;;;;;11.95;9.98;;;;;;;25.05;66.52;100038.84;5052475;28;20025;-62
2022/06/27 03:43:23;;;;;;;13.02;9.15;;;;;;;25.09;66.37;100035.00;5033556;28;20070;-62
2022/06/27 03:45:49;;;;;;;12.43;9.20;;;;;;;25.24;65.79;100032.97;5051089;28;20331;-62
2022/06/27 03:50:59;;;;;;;11.52;9.52;;;;;;;25.38;64.17;100031.94;5051334;28;20136;-62
2022/06/27 03:53:25;;;;;;;11.45;9.38;;;;;;;25.43;63.97;100024.47;5051615;28;20466;-62
2022/06/27 03:55:51;;;;;;;12.43;8.82;;;;;;;25.59;64.29;100037.38;5036335;28;20455;-62
2022/06/27 03:58:17;;;;;;;12.15;8.93;;;;;;;25.60;64.17;100025.78;5053571;28;20104;-62
2022/06/27 04:00:42;;;;;;;11.02;8.93;;;;;;;25.70;63.86;100031.22;5053530;28;20024;-63
2022/06/27 04:03:08;;;;;;;12.38;8.98;;;;;;;25.69;63.60;100025.06;5053454;28;20036;-64
2022/06/27 04:05:33;;;;;;;11.88;9.23;;;;;;;25.77;62.87;100022.63;5053960;28;20025;-64
2022/06/27 04:07:59;;;;;;;12.70;9.52;;;;;;;25.84;62.99;100029.13;5073426;28;20029;-64
2022/06/27 04:10:25;;;;;;;12.98;8.70;;;;;;;25.93;62.42;100024.91;5055974;28;20021;-64
2022/06/27 04:12:50;;;;;;;10.68;8.90;;;;;;;26.04;62.20;100018.75;5056685;28;20021;-64
2022/06/27 04:15:16;;;;;;;17.52;10.13;;;;;;;26.07;62.57;100023.81;5053442;28;20021;-63
2022/06/27 04:17:41;;;;;;;9.77;8.75;;;;;;;26.18;62.80;100023.78;5035269;28;20038;-64
2022/06/27 04:20:07;;;;;;;15.73;8.82;;;;;;;26.18;61.68;100020.28;5036988;28;20032;-64
2022/06/27 04:22:33;;;;;;;12.15;8.25;;;;;;;26.23;62.01;100019.91;5050519;28;20419;-63
2022/06/27 04:25:00;;;;;;;10.32;9.13;;;;;;;26.23;62.12;100009.31;5054990;28;20048;-64
2022/06/27 04:27:27;;;;;;;10.55;9.07;;;;;;;26.26;62.11;100019.66;5054348;28;20068;-63
2022/06/27 04:29:53;;;;;;;14.80;9.52;;;;;;;26.28;61.64;100012.41;5054786;28;20448;-64
2022/06/27 04:32:21;;;;;;;9.95;8.82;;;;;;;26.43;61.60;100021.75;5053939;28;20551;-64
2022/06/27 04:34:48;;;;;;;9.65;8.63;;;;;;;26.33;61.81;100021.69;5054325;28;20104;-63
2022/06/27 04:37:15;;;;;;;14.05;9.05;;;;;;;26.30;61.71;100013.97;5053889;28;20458;-63
2022/06/27 04:39:40;;;;;;;11.73;9.02;;;;;;;26.43;61.98;100010.31;5054412;28;20084;-64
2022/06/27 04:42:07;;;;;;;12.43;9.55;;;;;;;26.57;61.92;100012.66;5054965;28;20032;-64
2022/06/27 04:44:34;;;;;;;10.98;9.27;;;;;;;26.51;61.25;100013.19;5054574;28;20033;-64
2022/06/27 04:47:02;;;;;;;14.63;9.43;;;;;;;26.44;61.90;100006.69;5034339;28;20021;-64
2022/06/27 04:49:28;;;;;;;11.30;9.25;;;;;;;26.57;61.36;100006.50;5048594;28;20482;-63
2022/06/27 04:51:56;;;;;;;11.20;8.77;;;;;;;26.69;61.65;100010.81;5049657;28;20021;-62
2022/06/27 04:54:22;;;;;;;11.90;9.65;;;;;;;26.75;61.29;99999.69;5043840;28;20033;-63
2022/06/27 04:56:48;;;;;;;11.05;9.13;;;;;;;26.72;61.05;100004.41;5054476;28;20025;-62
2022/06/27 04:59:14;;;;;;;13.77;9.00;;;;;;;26.83;61.18;100004.34;5053471;28;20079;-62
2022/06/27 05:01:40;;;;;;;11.98;9.90;;;;;;;26.81;60.47;100007.13;5053467;28;20060;-61
2022/06/27 05:04:05;;;;;;;12.07;9.40;;;;;;;26.85;60.90;100013.00;5035666;28;20402;-62
2022/06/27 05:06:31;;;;;;;10.13;9.15;;;;;;;27.07;60.75;100013.88;5050896;28;20025;-61
2022/06/27 05:08:58;;;;;;;11.18;9.25;;;;;;;27.05;60.94;100000.69;5035922;28;20030;-62
2022/06/27 05:11:24;;;;;;;9.57;8.52;;;;;;;27.19;59.88;99992.38;5053920;28;20041;-64
2022/06/27 05:13:50;;;;;;;12.50;9.25;;;;;;;27.31;60.70;100001.09;5053372;28;20074;-62
2022/06/27 05:16:16;;;;;;;10.05;8.88;;;;;;;27.42;60.44;99999.34;5053794;28;20056;-62
2022/06/27 05:18:42;;;;;;;10.82;9.48;;;;;;;27.67;59.58;99996.22;5055048;28;20082;-63
2022/06/27 05:21:08;;;;;;;10.80;9.23;;;;;;;27.67;59.32;99995.38;5062889;28;20474;-64
2022/06/27 05:23:37;;;;;;;10.48;9.40;;;;;;;27.73;58.33;99992.16;5073657;28;20024;-63
2022/06/27 05:26:04;;;;;;;10.35;9.35;;;;;;;27.81;59.19;100000.31;5038008;28;20029;-63
2022/06/27 05:28:30;;;;;;;10.43;9.32;;;;;;;27.94;58.43;99992.06;5034838;28;20495;-64
2022/06/27 05:30:56;;;;;;;12.00;9.93;;;;;;;28.13;58.38;99995.78;5053155;28;20096;-63
2022/06/27 05:33:22;;;;;;;12.82;9.07;;;;;;;28.21;57.88;99988.75;5053383;28;20021;-62
2022/06/27 05:35:49;;;;;;;16.55;10.48;;;;;;;28.34;56.30;99996.47;5053670;28;20025;-63
2022/06/27 05:38:15;;;;;;;13.75;8.82;;;;;;;28.60;55.67;99990.56;5055553;28;20051;-63
2022/06/27 05:40:41;;;;;;;9.90;9.00;;;;;;;28.67;55.83;99983.72;5053562;28;20370;-62
2022/06/27 05:43:08;;;;;;;9.63;8.73;;;;;;;28.71;56.50;99990.44;5035331;28;20029;-64
2022/06/27 05:45:34;;;;;;;10.35;9.35;;;;;;;28.81;55.26;99986.94;5031549;28;20017;-64
2022/06/27 05:48:02;;;;;;;13.20;8.95;;;;;;;28.81;55.07;99987.75;5040043;28;20052;-63
2022/06/27 05:50:31;;;;;;;12.10;9.48;;;;;;;28.71;53.86;99989.63;5052970;28;20029;-64
2022/06/27 05:52:59;;;;;;;12.43;9.93;;;;;;;28.93;54.16;99977.75;5052935;28;20471;-64
2022/06/27 05:55:25;;;;;;;23.13;10.63;;;;;;;28.96;53.76;99982.84;5052937;28;20048;-63
2022/06/27 05:57:53;;;;;;;27.05;11.25;;;;;;;28.84;53.65;99952.81;5052559;28;21299;-64
2022/06/27 06:00:19;;;;;;;16.27;10.68;;;;;;;29.12;54.06;99978.69;5035230;28;20474;-63
2022/06/27 06:02:45;;;;;;;17.83;10.50;;;;;;;29.12;53.19;99976.00;5052665;28;20029;-65
2022/06/27 06:05:12;;;;;;;12.27;9.13;;;;;;;29.27;52.46;99977.25;5047016;28;20044;-64
2022/06/27 06:07:38;;;;;;;10.07;9.07;;;;;;;29.37;51.68;99986.09;5034792;28;20056;-63
2022/06/27 06:10:04;;;;;;;15.68;9.35;;;;;;;29.44;52.19;99979.16;5052982;28;20049;-62
2022/06/27 06:12:30;;;;;;;11.88;9.48;;;;;;;29.56;52.00;99984.31;5052661;28;20060;-63
2022/06/27 06:15:02;;;;;;;16.00;9.90;;;;;;;29.55;51.49;99983.44;5032183;28;20038;-63
2022/06/27 06:17:31;;;;;;;12.85;9.60;;;;;;;29.40;52.04;99972.44;5052258;28;20046;-63
2022/06/27 06:19:56;;;;;;;14.65;9.77;;;;;;;29.42;52.48;99965.13;5052241;28;20037;-63
2022/06/27 06:22:22;;;;;;;36.60;11.57;;;;;;;29.29;53.90;99969.97;5052715;28;20028;-64
2022/06/27 06:24:49;;;;;;;14.10;10.30;;;;;;;29.51;51.91;99976.72;5050784;28;20371;-65
2022/06/27 06:27:16;;;;;;;13.90;9.32;;;;;;;29.61;51.53;99974.00;5038232;28;20363;-63
2022/06/27 06:29:42;;;;;;;12.10;9.70;;;;;;;29.68;51.36;99976.94;5052157;28;20037;-64
2022/06/27 06:32:08;;;;;;;12.45;9.40;;;;;;;29.75;51.98;99978.84;5052190;28;20395;-64
2022/06/27 06:34:34;;;;;;;13.10;10.20;;;;;;;29.70;52.75;99964.25;5052624;28;20087;-63
2022/06/27 06:37:00;;;;;;;11.10;9.93;;;;;;;29.71;52.69;99973.94;5062429;28;20099;-65
2022/06/27 06:39:25;;;;;;;10.75;9.60;;;;;;;29.79;52.62;99977.53;5056487;28;20037;-65
2022/06/27 06:41:52;;;;;;;14.18;10.18;;;;;;;29.94;53.08;99977.06;5034868;28;20056;-64
2022/06/27 06:44:18;;;;;;;15.18;9.57;;;;;;;29.84;52.83;99976.28;5072422;28;20024;-63
2022/06/27 06:46:43;;;;;;;17.15;11.27;;;;;;;29.77;53.06;99976.00;5035725;28;20470;-62
2022/06/27 06:49:10;;;;;;;12.15;10.93;;;;;;;29.89;52.31;99979.38;5046014;28;20047;-63
2022/06/27 06:51:42;;;;;;;20.52;11.43;;;;;;;29.96;52.07;99975.09;5051809;28;20052;-64
2022/06/27 06:54:08;;;;;;;;;;;;;;;29.99;51.98;99980.13;5040319;28;20037;-65
2022/06/27 06:56:34;;;;;;;11.20;10.10;;;;;;;30.04;52.41;99972.47;5034132;28;19908;-63
2022/06/27 06:59:02;;;;;;;14.60;10.65;;;;;;;29.82;52.24;99935.53;5048850;28;20025;-62
2022/06/27 07:01:28;;;;;;;12.90;11.50;;;;;;;30.08;52.27;99973.84;5057323;28;20614;-62
2022/06/27 07:03:55;;;;;;;12.85;11.02;;;;;;;30.27;51.55;99980.03;5041787;28;20034;-63
2022/06/27 07:06:28;;;;;;;12.70;11.50;;;;;;;30.19;51.04;99982.66;5034423;28;20044;-63
2022/06/27 07:08:57;;;;;;;14.15;10.55;;;;;;;29.78;51.13;99942.97;5052217;28;20021;-64
2022/06/27 07:11:25;;;;;;;13.02;10.98;;;;;;;29.76;50.96;99940.47;5063814;28;20027;-62
2022/06/27 07:13:51;;;;;;;12.05;10.85;;;;;;;30.17;49.90;99979.28;5051581;28;20017;-64
2022/06/27 07:16:18;;;;;;;11.13;9.90;;;;;;;30.34;49.65;99974.94;5051749;28;20021;-61
2022/06/27 07:18:46;;;;;;;12.43;9.93;;;;;;;30.53;48.54;99981.94;5051959;28;20025;-62
2022/06/27 07:21:17;;;;;;;11.00;10.10;;;;;;;30.19;50.38;99938.06;5051704;28;20040;-62
2022/06/27 07:23:46;;;;;;;11.10;10.00;;;;;;;30.59;47.93;99982.19;5051050;28;20398;-62
2022/06/27 07:26:12;;;;;;;11.85;10.85;;;;;;;30.58;48.66;99975.13;5071310;28;20367;-63
2022/06/27 07:28:40;;;;;;;11.05;9.88;;;;;;;30.71;48.94;99973.91;5058108;28;20024;-64
2022/06/27 07:31:11;;;;;;;14.73;10.45;;;;;;;30.67;50.22;99965.38;5051593;28;20422;-65
2022/06/27 07:33:38;;;;;;;11.52;10.40;;;;;;;30.75;49.22;99972.59;5051527;28;20099;-64
2022/06/27 07:36:08;;;;;;;11.65;10.63;;;;;;;30.78;49.21;99973.13;5052898;28;20108;-64
2022/06/27 07:38:38;;;;;;;12.00;10.90;;;;;;;30.52;49.67;99975.78;5055002;28;20110;-64
2022/06/27 07:41:07;;;;;;;11.32;10.32;;;;;;;30.68;50.32;99971.53;5069689;28;20050;-64
2022/06/27 07:43:34;;;;;;;11.90;10.75;;;;;;;30.69;49.11;99968.72;5071764;28;20107;-64
2022/06/27 07:46:01;;;;;;;14.38;10.98;;;;;;;30.69;48.51;99979.41;5061875;28;20032;-65
2022/06/27 07:48:27;;;;;;;11.25;10.25;;;;;;;30.45;49.66;99977.38;5056509;28;20359;-65
2022/06/27 07:50:54;;;;;;;11.32;10.35;;;;;;;30.43;49.03;99974.03;5041556;28;20029;-64
2022/06/27 07:53:20;;;;;;;12.95;11.80;;;;;;;30.57;50.04;99969.94;5033857;28;20036;-63
2022/06/27 07:55:54;;;;;;;12.27;11.30;;;;;;;30.66;50.26;99965.50;5051206;28;20025;-64
2022/06/27 07:58:26;;;;;;;11.75;10.68;;;;;;;30.46;50.20;99933.63;5051195;28;20454;-65
2022/06/27 08:00:52;;;;;;;13.57;10.85;;;;;;;30.86;49.69;99967.00;5059586;28;20086;-63
2022/06/27 08:06:15;;;;;;;12.45;11.27;;;;;;;31.03;47.64;99959.94;5069808;28;20027;-64
2022/06/27 08:08:44;;;;;;;12.20;11.20;;;;;;;31.00;48.11;99970.91;5033456;28;20025;-64
2022/06/27 08:11:23;;;;;;;12.38;11.27;;;;;;;31.02;48.30;99957.41;5069935;28;20025;-63
2022/06/27 08:13:52;;;;;;;11.32;10.25;;;;;;;30.93;47.77;99935.09;5071368;28;20389;-64
2022/06/27 08:16:20;;;;;;;12.45;11.25;;;;;;;30.72;49.28;99960.38;5059710;28;20031;-63
2022/06/27 08:18:48;;;;;;;12.38;11.27;;;;;;;30.72;49.52;99960.38;5047845;28;20495;-63
2022/06/27 08:21:20;;;;;;;12.35;11.07;;;;;;;30.79;48.29;99952.56;5050557;28;20040;-62
2022/06/27 08:23:48;;;;;;;12.30;11.07;;;;;;;30.62;49.76;99971.16;5051015;28;20483;-64
2022/06/27 08:26:14;;;;;;;12.88;11.68;;;;;;;30.73;49.18;99954.03;5051076;28;20071;-62
2022/06/27 08:28:42;;;;;;;12.20;11.10;;;;;;;30.67;48.77;99949.31;5051353;28;20028;-62
2022/06/27 08:31:11;;;;;;;11.70;10.60;;;;;;;30.84;48.89;99960.09;5050814;28;20031;-63
2022/06/27 08:33:39;;;;;;;12.60;10.70;;;;;;;30.87;49.59;99957.97;5051114;28;20028;-62
2022/06/27 08:36:06;;;;;;;15.95;11.75;;;;;;;30.70;49.71;99957.03;5052661;28;20021;-67
2022/06/27 08:38:39;;;;;;;12.85;11.65;;;;;;;30.83;49.35;99958.44;5053030;28;20389;-67
2022/06/27 08:41:06;;;;;;;12.45;11.20;;;;;;;30.96;48.69;99950.84;5055064;28;20025;-66
2022/06/27 08:43:33;;;;;;;11.98;10.73;;;;;;;30.96;48.80;99943.63;5054638;28;20048;-67
2022/06/27 08:45:58;;;;;;;11.00;9.85;;;;;;;30.99;49.69;99955.84;5054200;28;20467;-67
2022/06/27 08:48:24;;;;;;;13.38;12.07;;;;;;;30.52;50.88;99954.38;5057838;28;20045;-67
2022/06/27 08:50:50;;;;;;;12.77;11.75;;;;;;;30.72;50.49;99944.31;5063148;28;20033;-63
2022/06/27 08:53:17;;;;;;;12.57;11.32;;;;;;;31.05;49.07;99946.38;5054331;28;20603;-62
2022/06/27 08:55:46;;;;;;;12.63;11.52;;;;;;;31.14;48.65;99948.94;5053719;28;20493;-62
2022/06/27 08:58:13;;;;;;;12.90;11.80;;;;;;;31.08;48.98;99940.72;5053913;28;20064;-62
2022/06/27 09:00:42;;;;;;;14.02;12.40;;;;;;;31.00;49.40;99946.84;5036282;28;20547;-62
2022/06/27 09:03:08;;;;;;;12.73;11.35;;;;;;;31.08;49.72;99948.75;5053979;28;20032;-62
2022/06/27 09:05:34;;;;;;;14.82;11.68;;;;;;;31.16;48.45;99940.75;5054067;28;20029;-62
2022/06/27 09:08:06;;;;;;;14.90;11.77;;;;;;;31.13;47.02;99899.09;5053729;28;20037;-65
2022/06/27 09:10:43;;;;;;;16.65;11.30;;;;;;;31.31;46.41;99906.16;5053448;28;20575;-65
2022/06/27 09:13:11;;;;;;;12.60;11.38;;;;;;;31.31;47.57;99900.81;5054120;28;20040;-63
2022/06/27 09:16:00;;;;;;;12.50;11.30;;;;;;;31.39;47.35;99924.94;5053819;28;20025;-62
2022/06/27 09:18:33;;;;;;;12.82;11.63;;;;;;;31.42;46.66;99935.31;5053916;28;20031;-64
2022/06/27 09:21:09;;;;;;;12.65;11.55;;;;;;;31.31;47.26;99935.63;5046020;28;20045;-62
2022/06/27 09:23:43;;;;;;;12.95;10.65;;;;;;;31.00;47.15;99914.72;5053560;28;20029;-60
2022/06/27 09:26:15;;;;;;;12.27;11.18;;;;;;;31.32;47.66;99940.81;5053194;28;20028;-61
2022/06/27 09:28:50;;;;;;;11.98;10.80;;;;;;;31.41;45.91;99931.00;5054521;28;20072;-61
2022/06/27 09:31:30;;;;;;;11.90;10.80;;;;;;;31.51;46.51;99933.50;5053216;28;20059;-62
2022/06/27 09:34:18;;;;;;;11.75;10.60;;;;;;;31.69;47.62;99930.75;5053005;28;20040;-62
2022/06/27 09:36:51;;;;;;;12.40;11.10;;;;;;;31.78;46.09;99929.78;5053231;28;20051;-63
2022/06/27 09:39:17;;;;;;;12.02;10.80;;;;;;;31.84;45.84;99934.47;5052562;28;20123;-62
2022/06/27 09:41:45;;;;;;;11.55;10.35;;;;;;;31.83;46.33;99930.09;5053530;28;20029;-61
2022/06/27 09:44:16;;;;;;;11.15;10.00;;;;;;;31.81;45.04;99925.91;5058089;28;20029;-62
2022/06/27 09:46:50;;;;;;;11.53;10.07;;;;;;;31.67;45.33;99905.97;5051660;28;20394;-62
2022/06/27 09:49:16;;;;;;;11.85;10.73;;;;;;;31.94;44.97;99926.28;5053413;28;20029;-62
2022/06/27 09:54:27;;;;;;;12.13;11.02;;;;;;;31.83;45.32;99903.31;5043141;28;20039;-62
2022/06/27 09:56:54;;;;;;;11.68;10.48;;;;;;;31.96;45.88;99918.91;5053116;28;20040;-61
2022/06/27 09:59:21;;;;;;;11.75;10.65;;;;;;;31.75;44.51;99919.38;5052499;28;20467;-63
2022/06/27 10:01:49;;;;;;;11.32;10.18;;;;;;;31.56;44.85;99920.47;5067935;28;20028;-64
2022/06/27 10:04:16;;;;;;;9.98;9.15;;;;;;;31.33;45.28;99893.47;5044674;28;20470;-64
2022/06/27 10:06:42;;;;;;;10.68;9.68;;;;;;;31.55;45.25;99910.75;5052880;28;20028;-64
2022/06/27 10:09:08;;;;;;;11.10;10.27;;;;;;;31.39;46.94;99910.72;5052444;28;20082;-64
2022/06/27 10:11:36;;;;;;;11.50;10.32;;;;;;;31.35;45.53;99874.56;5051968;28;20406;-63
2022/06/27 10:14:29;;;;;;;10.95;10.05;;;;;;;31.46;45.32;99899.19;5035131;28;20040;-63
2022/06/27 10:16:59;;;;;;;12.25;10.48;;;;;;;31.58;44.27;99901.59;5049543;28;20475;-64
2022/06/27 10:19:26;;;;;;;11.75;10.48;;;;;;;31.69;44.54;99887.91;5055565;28;20478;-64
2022/06/27 10:21:53;;;;;;;10.50;9.50;;;;;;;31.72;43.73;99892.09;5057532;28;20028;-65
2022/06/27 10:24:18;;;;;;;10.35;9.43;;;;;;;31.92;43.65;99901.47;5052190;28;20017;-64
2022/06/27 10:26:45;;;;;;;10.85;9.75;;;;;;;31.69;44.64;99903.13;5058635;28;20095;-64
2022/06/27 10:29:29;;;;;;;9.82;8.75;;;;;;;31.65;45.64;99894.56;5054588;28;20029;-65
2022/06/27 10:31:59;;;;;;;10.32;9.27;;;;;;;31.78;43.81;99897.63;5052163;28;20035;-66
2022/06/27 10:34:39;;;;;;;11.77;10.38;;;;;;;31.41;46.08;99887.31;5052145;28;20029;-63
2022/06/27 10:37:28;;;;;;;11.77;9.32;;;;;;;31.42;45.38;99883.63;5051456;28;20040;-67
2022/06/27 10:40:19;;;;;;;10.07;9.05;;;;;;;31.30;45.69;99878.56;5038567;28;20057;-65
2022/06/27 10:42:55;;;;;;;10.95;9.65;;;;;;;31.53;44.06;99874.47;5045574;28;20163;-64
2022/06/27 10:45:21;;;;;;;10.40;9.43;;;;;;;31.80;43.98;99889.44;5045707;28;20029;-67
2022/06/27 10:47:51;;;;;;;10.23;9.23;;;;;;;31.93;44.00;99878.22;5033950;28;20060;-64
2022/06/27 10:50:20;;;;;;;11.43;10.45;;;;;;;31.77;43.07;99831.66;5052324;28;20041;-65
2022/06/27 10:52:46;;;;;;;10.90;9.90;;;;;;;31.94;43.34;99890.59;5033991;28;20037;-63
2022/06/27 10:55:25;;;;;;;11.05;10.05;;;;;;;31.94;44.54;99882.53;5049615;28;20029;-62
2022/06/27 10:57:53;;;;;;;11.68;10.48;;;;;;;31.57;44.76;99844.53;5041042;28;20025;-63
2022/06/27 11:00:42;;;;;;;10.18;9.27;;;;;;;31.70;43.69;99878.00;5052118;28;20096;-63
2022/06/27 11:03:31;;;;;;;10.95;10.05;;;;;;;31.65;45.17;99884.72;5051659;28;20032;-63
2022/06/27 11:05:59;;;;;;;11.32;10.27;;;;;;;31.72;44.02;99876.84;5032102;28;20502;-65
2022/06/27 11:08:25;;;;;;;11.13;10.13;;;;;;;31.72;44.89;99867.97;5071070;28;20166;-66
2022/06/27 11:10:51;;;;;;;11.45;10.35;;;;;;;31.79;44.47;99866.31;5071749;28;20475;-64
2022/06/27 11:13:35;;;;;;;11.85;10.65;;;;;;;31.66;46.58;99877.50;5071264;28;20024;-65
2022/06/27 11:16:05;;;;;;;10.77;9.82;;;;;;;31.68;45.40;99878.19;5064159;28;20102;-63
2022/06/27 11:18:41;;;;;;;11.20;9.48;;;;;;;31.71;45.98;99869.84;5051820;28;20478;-65
2022/06/27 11:21:08;;;;;;;12.02;10.98;;;;;;;31.70;45.14;99870.81;5051341;28;20110;-68
2022/06/27 11:23:54;;;;;;;11.65;10.45;;;;;;;31.48;45.91;99840.13;5051788;28;20029;-65
2022/06/27 11:26:23;;;;;;;10.73;9.25;;;;;;;31.69;43.90;99879.03;5051654;28;20541;-65
2022/06/27 11:34:18;;;;;;;11.40;10.38;;;;;;;31.71;45.27;99855.59;5061782;28;20090;-66